Airfield :
LOGIN :

Register | Disclaimer

   EN    FR    IT 

 










Legend :    VFR   Marginal VFR   IFR   Intensive IFR   Very Intensive IFR
Visi :
Ceiling :
>= 8 km
>= 3000ft
5 to 8 km
1000 to 3000 ft
1500m to 5 km
500 to 1000 ft
800 to 1500m
200 to 500 ft
< 800m
< 200 ft
Symbols :   Thunderstorms  Fog  Heavy snow  Heavy precipitations  Wind > 20 kt
SIGMETs :     Misc.  Thunderstorms  Icing  Turbulence  Mountain Waves  Volcanic Ashes






- Airport Elevation : 138 ft
- IATA code : BIO


LEBB - Bilbao

CURRENT METAR :
  • 131100Z 30029G41KT 9999 FEW027 BKN040 17/12 Q1010 TEMPO 3000 -RA

EXPIRED METARs :
  • 131030Z 29029G41KT 260V320 9999 FEW028 BKN040 17/12 Q1009 TEMPO 3000 -RA
  • 131000Z 29032G47KT 9999 FEW028 BKN040 17/12 Q1009 TEMPO 3000 -RA
  • 130930Z 29031G48KT 260V320 9999 FEW028 BKN040 17/12 Q1008 TEMPO 3000 -RA
  • 130900Z 29038G52KT 9999 FEW028 BKN040 16/12 Q1008 TEMPO 3000 -RA
  • 130830Z 29034G51KT 260V320 9999 FEW028 SCT040 BKN050 17/11 Q1007 TEMPO 3000 -RA

TAF TAF LEBB
Valid from the 13 at 06:00 until the 14 at 06:00 UTC


130500Z 1306/1406 29018KT 9999 SCT015 BKN025 TX17/1314Z TN12/1306Z
TEMPO 1306/1316 29020G33KT
TEMPO 1306/1310 27030G45KT
TEMPO 1310/1314 27028G43KT
PROB40
TEMPO 1306/1309 3000 -RA BKN010
BECMG 1317/1319 23009KT



MET'MAP, your aeronautical weather chart ! - Copyright ORBIFLY December 2007 - Disclaimer

ORBIFLY MET'MAP TEAM :

Programming & Development : Alexandra Zaïnal
Concept & original design : Baudouin d'Aumeries
Assistance for programming : Marc-Olivier Méhu
Technical & hardware support : Manuel Goepfert

Contact : metmap@orbifly.com




SOURCES & CREDITS :

   NOAA